sensor_id;sensor_type;location;lat;lon;timestamp;P1;durP1;ratioP1;P2;durP2;ratioP2
29358;SDS011;16347;53.232;6.556;2023-02-03T00:01:17;16.65;;;1.77;;
29358;SDS011;16347;53.232;6.556;2023-02-03T00:03:45;14.63;;;1.73;;
29358;SDS011;16347;53.232;6.556;2023-02-03T00:06:13;10.23;;;1.42;;
29358;SDS011;16347;53.232;6.556;2023-02-03T00:08:43;13.52;;;2.13;;
29358;SDS011;16347;53.232;6.556;2023-02-03T00:11:11;15.90;;;2.03;;
29358;SDS011;16347;53.232;6.556;2023-02-03T00:13:39;13.10;;;2.00;;
29358;SDS011;16347;53.232;6.556;2023-02-03T00:16:07;10.68;;;1.98;;
29358;SDS011;16347;53.232;6.556;2023-02-03T00:18:35;15.15;;;2.78;;
29358;SDS011;16347;53.232;6.556;2023-02-03T00:21:04;21.15;;;2.33;;
29358;SDS011;16347;53.232;6.556;2023-02-03T00:23:32;17.23;;;2.20;;
29358;SDS011;16347;53.232;6.556;2023-02-03T00:26:06;12.82;;;1.75;;
29358;SDS011;16347;53.232;6.556;2023-02-03T00:28:35;13.60;;;2.60;;
29358;SDS011;16347;53.232;6.556;2023-02-03T00:31:04;12.88;;;1.95;;
29358;SDS011;16347;53.232;6.556;2023-02-03T00:33:32;8.82;;;1.60;;
29358;SDS011;16347;53.232;6.556;2023-02-03T00:36:03;15.27;;;1.92;;
29358;SDS011;16347;53.232;6.556;2023-02-03T00:38:31;18.02;;;2.08;;
29358;SDS011;16347;53.232;6.556;2023-02-03T00:40:59;11.32;;;2.38;;
29358;SDS011;16347;53.232;6.556;2023-02-03T00:43:29;10.32;;;2.17;;
29358;SDS011;16347;53.232;6.556;2023-02-03T00:45:57;11.23;;;1.88;;
29358;SDS011;16347;53.232;6.556;2023-02-03T00:48:27;14.98;;;1.90;;
29358;SDS011;16347;53.232;6.556;2023-02-03T00:50:57;14.52;;;2.60;;
29358;SDS011;16347;53.232;6.556;2023-02-03T00:53:25;18.85;;;2.25;;
29358;SDS011;16347;53.232;6.556;2023-02-03T00:55:53;15.60;;;2.28;;
29358;SDS011;16347;53.232;6.556;2023-02-03T00:58:21;20.92;;;2.20;;
29358;SDS011;16347;53.232;6.556;2023-02-03T01:00:51;10.57;;;1.80;;
29358;SDS011;16347;53.232;6.556;2023-02-03T01:03:21;9.88;;;1.83;;
29358;SDS011;16347;53.232;6.556;2023-02-03T01:05:50;16.98;;;1.90;;
29358;SDS011;16347;53.232;6.556;2023-02-03T01:08:18;18.88;;;2.00;;
29358;SDS011;16347;53.232;6.556;2023-02-03T01:10:46;14.48;;;2.30;;
29358;SDS011;16347;53.232;6.556;2023-02-03T01:13:14;14.63;;;1.95;;
29358;SDS011;16347;53.232;6.556;2023-02-03T01:15:45;19.80;;;2.17;;
29358;SDS011;16347;53.232;6.556;2023-02-03T01:18:16;9.48;;;2.00;;
29358;SDS011;16347;53.232;6.556;2023-02-03T01:20:44;12.70;;;2.00;;
29358;SDS011;16347;53.232;6.556;2023-02-03T01:23:12;16.83;;;2.00;;
29358;SDS011;16347;53.232;6.556;2023-02-03T01:25:40;12.02;;;1.98;;
29358;SDS011;16347;53.232;6.556;2023-02-03T01:28:08;15.80;;;2.25;;
29358;SDS011;16347;53.232;6.556;2023-02-03T01:30:36;14.18;;;2.03;;
29358;SDS011;16347;53.232;6.556;2023-02-03T01:33:04;16.23;;;2.60;;
29358;SDS011;16347;53.232;6.556;2023-02-03T01:35:34;13.18;;;1.92;;
29358;SDS011;16347;53.232;6.556;2023-02-03T01:38:02;7.30;;;1.92;;
29358;SDS011;16347;53.232;6.556;2023-02-03T01:40:30;14.18;;;2.58;;
29358;SDS011;16347;53.232;6.556;2023-02-03T01:42:58;15.25;;;2.22;;
29358;SDS011;16347;53.232;6.556;2023-02-03T01:45:26;20.35;;;2.53;;
29358;SDS011;16347;53.232;6.556;2023-02-03T01:47:55;18.10;;;2.42;;
29358;SDS011;16347;53.232;6.556;2023-02-03T01:50:26;12.70;;;2.20;;
29358;SDS011;16347;53.232;6.556;2023-02-03T01:53:00;12.80;;;2.42;;
29358;SDS011;16347;53.232;6.556;2023-02-03T01:55:31;11.15;;;2.13;;
29358;SDS011;16347;53.232;6.556;2023-02-03T01:58:03;11.13;;;2.08;;
29358;SDS011;16347;53.232;6.556;2023-02-03T02:00:35;13.13;;;2.33;;
29358;SDS011;16347;53.232;6.556;2023-02-03T02:03:03;15.77;;;2.28;;
29358;SDS011;16347;53.232;6.556;2023-02-03T02:05:33;16.67;;;2.08;;
29358;SDS011;16347;53.232;6.556;2023-02-03T02:08:05;11.82;;;2.15;;
29358;SDS011;16347;53.232;6.556;2023-02-03T02:10:35;16.30;;;2.60;;
29358;SDS011;16347;53.232;6.556;2023-02-03T02:13:04;11.73;;;2.25;;
29358;SDS011;16347;53.232;6.556;2023-02-03T02:15:35;13.13;;;2.65;;
29358;SDS011;16347;53.232;6.556;2023-02-03T02:18:13;17.83;;;2.97;;
29358;SDS011;16347;53.232;6.556;2023-02-03T02:20:55;18.42;;;3.03;;
29358;SDS011;16347;53.232;6.556;2023-02-03T02:23:55;20.63;;;2.83;;
29358;SDS011;16347;53.232;6.556;2023-02-03T02:26:43;19.45;;;2.50;;
29358;SDS011;16347;53.232;6.556;2023-02-03T02:32:43;13.07;;;2.30;;
29358;SDS011;16347;53.232;6.556;2023-02-03T02:35:25;15.48;;;2.08;;
29358;SDS011;16347;53.232;6.556;2023-02-03T02:38:00;8.73;;;2.05;;
29358;SDS011;16347;53.232;6.556;2023-02-03T02:40:32;15.15;;;2.28;;
29358;SDS011;16347;53.232;6.556;2023-02-03T02:43:07;18.20;;;2.40;;
29358;SDS011;16347;53.232;6.556;2023-02-03T02:45:43;14.43;;;2.63;;
29358;SDS011;16347;53.232;6.556;2023-02-03T02:48:19;14.32;;;2.38;;
29358;SDS011;16347;53.232;6.556;2023-02-03T02:50:51;17.88;;;2.45;;
29358;SDS011;16347;53.232;6.556;2023-02-03T02:53:23;15.65;;;2.25;;
29358;SDS011;16347;53.232;6.556;2023-02-03T02:55:54;19.42;;;2.65;;
29358;SDS011;16347;53.232;6.556;2023-02-03T02:58:24;17.65;;;2.58;;
29358;SDS011;16347;53.232;6.556;2023-02-03T03:00:54;23.05;;;2.60;;
29358;SDS011;16347;53.232;6.556;2023-02-03T03:03:24;14.18;;;2.38;;
29358;SDS011;16347;53.232;6.556;2023-02-03T03:05:53;16.70;;;2.20;;
29358;SDS011;16347;53.232;6.556;2023-02-03T03:08:36;18.55;;;2.85;;
29358;SDS011;16347;53.232;6.556;2023-02-03T03:11:09;19.23;;;2.15;;
29358;SDS011;16347;53.232;6.556;2023-02-03T03:13:38;13.85;;;2.53;;
29358;SDS011;16347;53.232;6.556;2023-02-03T03:16:19;16.88;;;1.95;;
29358;SDS011;16347;53.232;6.556;2023-02-03T03:18:53;22.85;;;2.90;;
29358;SDS011;16347;53.232;6.556;2023-02-03T03:21:28;22.30;;;2.53;;
29358;SDS011;16347;53.232;6.556;2023-02-03T03:24:03;14.60;;;2.35;;
29358;SDS011;16347;53.232;6.556;2023-02-03T03:26:35;15.73;;;2.65;;
29358;SDS011;16347;53.232;6.556;2023-02-03T03:29:09;22.95;;;2.90;;
29358;SDS011;16347;53.232;6.556;2023-02-03T03:31:41;12.23;;;2.15;;
29358;SDS011;16347;53.232;6.556;2023-02-03T03:34:13;25.52;;;3.30;;
29358;SDS011;16347;53.232;6.556;2023-02-03T03:36:43;24.63;;;3.28;;
29358;SDS011;16347;53.232;6.556;2023-02-03T03:39:16;22.55;;;2.75;;
29358;SDS011;16347;53.232;6.556;2023-02-03T03:41:54;16.27;;;2.28;;
29358;SDS011;16347;53.232;6.556;2023-02-03T03:44:26;16.95;;;2.47;;
29358;SDS011;16347;53.232;6.556;2023-02-03T03:47:00;19.33;;;2.50;;
29358;SDS011;16347;53.232;6.556;2023-02-03T03:49:37;26.75;;;3.25;;
29358;SDS011;16347;53.232;6.556;2023-02-03T03:52:10;17.20;;;2.45;;
29358;SDS011;16347;53.232;6.556;2023-02-03T03:54:42;16.13;;;2.45;;
29358;SDS011;16347;53.232;6.556;2023-02-03T03:57:12;18.35;;;2.05;;
29358;SDS011;16347;53.232;6.556;2023-02-03T03:59:46;19.00;;;2.63;;
29358;SDS011;16347;53.232;6.556;2023-02-03T04:02:16;23.63;;;2.92;;
29358;SDS011;16347;53.232;6.556;2023-02-03T04:04:48;22.17;;;2.95;;
29358;SDS011;16347;53.232;6.556;2023-02-03T04:07:17;16.33;;;2.13;;
29358;SDS011;16347;53.232;6.556;2023-02-03T04:09:45;23.52;;;3.13;;
29358;SDS011;16347;53.232;6.556;2023-02-03T04:12:15;17.25;;;2.60;;
29358;SDS011;16347;53.232;6.556;2023-02-03T04:14:49;15.93;;;2.63;;
29358;SDS011;16347;53.232;6.556;2023-02-03T04:17:17;22.83;;;2.40;;
29358;SDS011;16347;53.232;6.556;2023-02-03T04:19:47;16.80;;;2.78;;
29358;SDS011;16347;53.232;6.556;2023-02-03T04:22:15;19.88;;;2.42;;
29358;SDS011;16347;53.232;6.556;2023-02-03T04:24:43;18.27;;;2.45;;
29358;SDS011;16347;53.232;6.556;2023-02-03T04:27:11;18.63;;;2.63;;
29358;SDS011;16347;53.232;6.556;2023-02-03T04:29:39;14.25;;;3.05;;
29358;SDS011;16347;53.232;6.556;2023-02-03T04:32:08;18.98;;;2.05;;
29358;SDS011;16347;53.232;6.556;2023-02-03T04:34:36;23.08;;;3.72;;
29358;SDS011;16347;53.232;6.556;2023-02-03T04:37:06;16.25;;;2.92;;
29358;SDS011;16347;53.232;6.556;2023-02-03T04:39:34;18.98;;;2.75;;
29358;SDS011;16347;53.232;6.556;2023-02-03T04:42:02;15.75;;;2.25;;
29358;SDS011;16347;53.232;6.556;2023-02-03T04:44:30;22.05;;;2.80;;
29358;SDS011;16347;53.232;6.556;2023-02-03T04:46:58;17.20;;;2.65;;
29358;SDS011;16347;53.232;6.556;2023-02-03T04:49:27;20.58;;;2.67;;
29358;SDS011;16347;53.232;6.556;2023-02-03T04:51:54;20.48;;;2.58;;
29358;SDS011;16347;53.232;6.556;2023-02-03T04:54:24;21.65;;;2.58;;
29358;SDS011;16347;53.232;6.556;2023-02-03T04:56:52;20.25;;;2.30;;
29358;SDS011;16347;53.232;6.556;2023-02-03T04:59:20;20.38;;;2.63;;
29358;SDS011;16347;53.232;6.556;2023-02-03T05:01:49;24.73;;;2.70;;
29358;SDS011;16347;53.232;6.556;2023-02-03T05:04:17;19.27;;;3.20;;
29358;SDS011;16347;53.232;6.556;2023-02-03T05:06:45;18.05;;;2.50;;
29358;SDS011;16347;53.232;6.556;2023-02-03T05:09:14;16.17;;;2.58;;
29358;SDS011;16347;53.232;6.556;2023-02-03T05:11:43;27.80;;;4.32;;
29358;SDS011;16347;53.232;6.556;2023-02-03T05:14:11;16.98;;;2.65;;
29358;SDS011;16347;53.232;6.556;2023-02-03T05:16:39;19.90;;;3.05;;
29358;SDS011;16347;53.232;6.556;2023-02-03T05:19:07;26.35;;;3.08;;
29358;SDS011;16347;53.232;6.556;2023-02-03T05:21:36;13.68;;;2.70;;
29358;SDS011;16347;53.232;6.556;2023-02-03T05:24:04;23.85;;;3.55;;
29358;SDS011;16347;53.232;6.556;2023-02-03T05:26:33;19.88;;;2.97;;
29358;SDS011;16347;53.232;6.556;2023-02-03T05:29:03;15.30;;;2.95;;
29358;SDS011;16347;53.232;6.556;2023-02-03T05:31:31;11.35;;;2.35;;
29358;SDS011;16347;53.232;6.556;2023-02-03T05:34:00;17.10;;;2.83;;
29358;SDS011;16347;53.232;6.556;2023-02-03T05:36:28;14.80;;;2.42;;
29358;SDS011;16347;53.232;6.556;2023-02-03T05:38:56;20.58;;;2.22;;
29358;SDS011;16347;53.232;6.556;2023-02-03T05:41:24;18.67;;;2.35;;
29358;SDS011;16347;53.232;6.556;2023-02-03T05:44:11;15.75;;;3.05;;
29358;SDS011;16347;53.232;6.556;2023-02-03T05:46:39;20.05;;;3.10;;
29358;SDS011;16347;53.232;6.556;2023-02-03T05:49:07;17.17;;;3.35;;
29358;SDS011;16347;53.232;6.556;2023-02-03T05:51:35;17.52;;;3.10;;
29358;SDS011;16347;53.232;6.556;2023-02-03T05:54:04;23.38;;;3.13;;
29358;SDS011;16347;53.232;6.556;2023-02-03T05:56:32;20.15;;;3.88;;
29358;SDS011;16347;53.232;6.556;2023-02-03T05:59:01;27.17;;;3.42;;
29358;SDS011;16347;53.232;6.556;2023-02-03T06:01:32;17.63;;;3.33;;
29358;SDS011;16347;53.232;6.556;2023-02-03T06:04:01;25.67;;;3.78;;
29358;SDS011;16347;53.232;6.556;2023-02-03T06:06:30;20.35;;;2.78;;
29358;SDS011;16347;53.232;6.556;2023-02-03T06:09:00;19.05;;;2.72;;
29358;SDS011;16347;53.232;6.556;2023-02-03T06:11:31;33.83;;;3.50;;
29358;SDS011;16347;53.232;6.556;2023-02-03T06:14:02;18.80;;;2.78;;
29358;SDS011;16347;53.232;6.556;2023-02-03T06:16:33;23.98;;;3.70;;
29358;SDS011;16347;53.232;6.556;2023-02-03T06:19:01;19.33;;;2.90;;
29358;SDS011;16347;53.232;6.556;2023-02-03T06:21:30;34.15;;;3.85;;
29358;SDS011;16347;53.232;6.556;2023-02-03T06:23:58;20.52;;;2.80;;
29358;SDS011;16347;53.232;6.556;2023-02-03T06:26:28;26.48;;;2.83;;
29358;SDS011;16347;53.232;6.556;2023-02-03T06:28:56;21.27;;;3.05;;
29358;SDS011;16347;53.232;6.556;2023-02-03T06:31:24;23.50;;;3.33;;
29358;SDS011;16347;53.232;6.556;2023-02-03T06:33:53;23.80;;;3.47;;
29358;SDS011;16347;53.232;6.556;2023-02-03T06:36:22;26.55;;;3.45;;
29358;SDS011;16347;53.232;6.556;2023-02-03T06:38:50;22.70;;;3.03;;
29358;SDS011;16347;53.232;6.556;2023-02-03T06:41:18;31.40;;;4.05;;
29358;SDS011;16347;53.232;6.556;2023-02-03T06:43:52;25.55;;;3.97;;
29358;SDS011;16347;53.232;6.556;2023-02-03T06:46:20;31.45;;;4.18;;
29358;SDS011;16347;53.232;6.556;2023-02-03T06:48:49;19.48;;;3.47;;
29358;SDS011;16347;53.232;6.556;2023-02-03T06:51:18;21.10;;;3.60;;
29358;SDS011;16347;53.232;6.556;2023-02-03T06:53:46;31.75;;;3.53;;
29358;SDS011;16347;53.232;6.556;2023-02-03T06:56:14;21.08;;;3.00;;
29358;SDS011;16347;53.232;6.556;2023-02-03T06:58:42;23.67;;;3.05;;
29358;SDS011;16347;53.232;6.556;2023-02-03T07:01:11;33.78;;;4.53;;
29358;SDS011;16347;53.232;6.556;2023-02-03T07:03:39;31.38;;;4.32;;
29358;SDS011;16347;53.232;6.556;2023-02-03T07:06:07;24.23;;;4.38;;
29358;SDS011;16347;53.232;6.556;2023-02-03T07:08:37;25.80;;;4.03;;
29358;SDS011;16347;53.232;6.556;2023-02-03T07:11:05;32.92;;;3.75;;
29358;SDS011;16347;53.232;6.556;2023-02-03T07:13:34;35.88;;;4.15;;
29358;SDS011;16347;53.232;6.556;2023-02-03T07:16:02;24.17;;;3.90;;
29358;SDS011;16347;53.232;6.556;2023-02-03T07:18:31;30.58;;;3.70;;
29358;SDS011;16347;53.232;6.556;2023-02-03T07:21:13;30.35;;;3.47;;
29358;SDS011;16347;53.232;6.556;2023-02-03T07:23:46;24.27;;;3.72;;
29358;SDS011;16347;53.232;6.556;2023-02-03T07:26:15;22.40;;;4.05;;
29358;SDS011;16347;53.232;6.556;2023-02-03T07:28:44;29.42;;;3.25;;
29358;SDS011;16347;53.232;6.556;2023-02-03T07:31:12;35.67;;;4.45;;
29358;SDS011;16347;53.232;6.556;2023-02-03T07:33:41;28.40;;;3.83;;
29358;SDS011;16347;53.232;6.556;2023-02-03T07:36:09;32.72;;;4.45;;
29358;SDS011;16347;53.232;6.556;2023-02-03T07:38:38;26.00;;;4.05;;
29358;SDS011;16347;53.232;6.556;2023-02-03T07:41:08;32.22;;;3.85;;
29358;SDS011;16347;53.232;6.556;2023-02-03T07:43:36;34.90;;;4.57;;
29358;SDS011;16347;53.232;6.556;2023-02-03T07:46:04;29.38;;;4.18;;
29358;SDS011;16347;53.232;6.556;2023-02-03T07:48:32;23.80;;;3.83;;
29358;SDS011;16347;53.232;6.556;2023-02-03T07:51:00;26.15;;;4.18;;
29358;SDS011;16347;53.232;6.556;2023-02-03T07:53:30;26.85;;;4.18;;
29358;SDS011;16347;53.232;6.556;2023-02-03T07:55:58;25.52;;;3.95;;
29358;SDS011;16347;53.232;6.556;2023-02-03T07:58:29;46.17;;;4.93;;
29358;SDS011;16347;53.232;6.556;2023-02-03T08:00:58;36.55;;;4.82;;
29358;SDS011;16347;53.232;6.556;2023-02-03T08:03:26;32.78;;;4.43;;
29358;SDS011;16347;53.232;6.556;2023-02-03T08:05:54;38.83;;;4.90;;
29358;SDS011;16347;53.232;6.556;2023-02-03T08:08:22;40.55;;;4.60;;
29358;SDS011;16347;53.232;6.556;2023-02-03T08:10:50;35.63;;;4.93;;
29358;SDS011;16347;53.232;6.556;2023-02-03T08:13:21;36.35;;;5.55;;
29358;SDS011;16347;53.232;6.556;2023-02-03T08:15:51;33.15;;;5.25;;
29358;SDS011;16347;53.232;6.556;2023-02-03T08:18:19;37.30;;;5.18;;
29358;SDS011;16347;53.232;6.556;2023-02-03T08:20:48;36.40;;;4.32;;
29358;SDS011;16347;53.232;6.556;2023-02-03T08:23:16;34.65;;;5.45;;
29358;SDS011;16347;53.232;6.556;2023-02-03T08:25:49;42.10;;;4.97;;
29358;SDS011;16347;53.232;6.556;2023-02-03T08:28:18;45.40;;;4.90;;
29358;SDS011;16347;53.232;6.556;2023-02-03T08:30:47;35.63;;;4.35;;
29358;SDS011;16347;53.232;6.556;2023-02-03T08:33:17;42.33;;;5.07;;
29358;SDS011;16347;53.232;6.556;2023-02-03T08:35:45;32.45;;;5.30;;
29358;SDS011;16347;53.232;6.556;2023-02-03T08:38:15;38.40;;;4.82;;
29358;SDS011;16347;53.232;6.556;2023-02-03T08:40:43;41.75;;;5.05;;
29358;SDS011;16347;53.232;6.556;2023-02-03T08:43:11;38.92;;;5.13;;
29358;SDS011;16347;53.232;6.556;2023-02-03T08:45:40;39.33;;;5.38;;
29358;SDS011;16347;53.232;6.556;2023-02-03T08:48:08;41.33;;;6.00;;
29358;SDS011;16347;53.232;6.556;2023-02-03T08:50:39;35.17;;;5.20;;
29358;SDS011;16347;53.232;6.556;2023-02-03T08:53:10;44.05;;;5.68;;
29358;SDS011;16347;53.232;6.556;2023-02-03T08:55:38;35.85;;;5.18;;
29358;SDS011;16347;53.232;6.556;2023-02-03T08:58:06;40.30;;;6.35;;
29358;SDS011;16347;53.232;6.556;2023-02-03T09:00:34;35.78;;;5.50;;
29358;SDS011;16347;53.232;6.556;2023-02-03T09:03:03;39.10;;;5.13;;
29358;SDS011;16347;53.232;6.556;2023-02-03T09:05:31;44.85;;;5.88;;
29358;SDS011;16347;53.232;6.556;2023-02-03T09:08:01;44.13;;;6.03;;
29358;SDS011;16347;53.232;6.556;2023-02-03T09:10:29;34.03;;;4.22;;
29358;SDS011;16347;53.232;6.556;2023-02-03T09:12:57;37.00;;;6.75;;
29358;SDS011;16347;53.232;6.556;2023-02-03T09:15:26;33.13;;;4.15;;
29358;SDS011;16347;53.232;6.556;2023-02-03T09:17:54;46.70;;;5.40;;
29358;SDS011;16347;53.232;6.556;2023-02-03T09:20:23;50.38;;;5.13;;
29358;SDS011;16347;53.232;6.556;2023-02-03T09:22:52;39.38;;;5.40;;
29358;SDS011;16347;53.232;6.556;2023-02-03T09:25:22;52.00;;;5.38;;
29358;SDS011;16347;53.232;6.556;2023-02-03T09:27:50;31.10;;;4.75;;
29358;SDS011;16347;53.232;6.556;2023-02-03T09:30:19;47.70;;;5.28;;
29358;SDS011;16347;53.232;6.556;2023-02-03T09:32:47;47.60;;;6.05;;
29358;SDS011;16347;53.232;6.556;2023-02-03T09:35:19;35.40;;;4.57;;
29358;SDS011;16347;53.232;6.556;2023-02-03T09:37:48;36.47;;;6.43;;
29358;SDS011;16347;53.232;6.556;2023-02-03T09:40:17;46.75;;;5.30;;
29358;SDS011;16347;53.232;6.556;2023-02-03T09:42:53;39.40;;;5.72;;
29358;SDS011;16347;53.232;6.556;2023-02-03T09:45:29;44.55;;;6.00;;
29358;SDS011;16347;53.232;6.556;2023-02-03T09:47:58;53.97;;;6.82;;
29358;SDS011;16347;53.232;6.556;2023-02-03T09:50:30;42.83;;;6.35;;
29358;SDS011;16347;53.232;6.556;2023-02-03T09:53:03;45.85;;;5.95;;
29358;SDS011;16347;53.232;6.556;2023-02-03T09:55:35;46.10;;;6.53;;
29358;SDS011;16347;53.232;6.556;2023-02-03T09:58:10;45.90;;;6.82;;
29358;SDS011;16347;53.232;6.556;2023-02-03T10:00:40;46.28;;;5.82;;
29358;SDS011;16347;53.232;6.556;2023-02-03T10:03:14;55.83;;;6.50;;
29358;SDS011;16347;53.232;6.556;2023-02-03T10:05:51;43.45;;;4.93;;
29358;SDS011;16347;53.232;6.556;2023-02-03T10:08:49;49.20;;;6.50;;
29358;SDS011;16347;53.232;6.556;2023-02-03T10:11:32;51.75;;;7.00;;
29358;SDS011;16347;53.232;6.556;2023-02-03T10:14:22;55.28;;;5.93;;
29358;SDS011;16347;53.232;6.556;2023-02-03T10:17:04;48.80;;;6.00;;
29358;SDS011;16347;53.232;6.556;2023-02-03T10:19:47;44.80;;;7.30;;
29358;SDS011;16347;53.232;6.556;2023-02-03T10:22:19;50.40;;;5.72;;
29358;SDS011;16347;53.232;6.556;2023-02-03T10:24:52;48.05;;;6.53;;
29358;SDS011;16347;53.232;6.556;2023-02-03T10:27:25;49.47;;;5.82;;
29358;SDS011;16347;53.232;6.556;2023-02-03T10:29:58;50.65;;;6.13;;
29358;SDS011;16347;53.232;6.556;2023-02-03T10:32:32;47.03;;;6.90;;
29358;SDS011;16347;53.232;6.556;2023-02-03T10:35:01;46.60;;;6.55;;
29358;SDS011;16347;53.232;6.556;2023-02-03T10:37:32;46.72;;;6.18;;
29358;SDS011;16347;53.232;6.556;2023-02-03T10:40:04;52.15;;;7.68;;
29358;SDS011;16347;53.232;6.556;2023-02-03T10:42:33;55.75;;;6.70;;
29358;SDS011;16347;53.232;6.556;2023-02-03T10:45:17;47.30;;;6.57;;
29358;SDS011;16347;53.232;6.556;2023-02-03T10:47:48;63.03;;;7.97;;
29358;SDS011;16347;53.232;6.556;2023-02-03T10:50:20;51.20;;;6.75;;
29358;SDS011;16347;53.232;6.556;2023-02-03T10:53:17;55.33;;;6.55;;
29358;SDS011;16347;53.232;6.556;2023-02-03T10:55:49;52.00;;;6.82;;
29358;SDS011;16347;53.232;6.556;2023-02-03T10:58:26;55.00;;;6.40;;
29358;SDS011;16347;53.232;6.556;2023-02-03T11:01:02;46.28;;;6.57;;
29358;SDS011;16347;53.232;6.556;2023-02-03T11:03:33;50.38;;;6.90;;
29358;SDS011;16347;53.232;6.556;2023-02-03T11:06:05;63.38;;;8.27;;
29358;SDS011;16347;53.232;6.556;2023-02-03T11:08:36;53.80;;;7.40;;
29358;SDS011;16347;53.232;6.556;2023-02-03T11:11:06;67.93;;;7.53;;
29358;SDS011;16347;53.232;6.556;2023-02-03T11:13:36;49.88;;;6.95;;
29358;SDS011;16347;53.232;6.556;2023-02-03T11:16:06;60.58;;;7.30;;
29358;SDS011;16347;53.232;6.556;2023-02-03T11:18:45;60.63;;;7.43;;
29358;SDS011;16347;53.232;6.556;2023-02-03T11:21:19;54.75;;;6.43;;
29358;SDS011;16347;53.232;6.556;2023-02-03T11:23:54;72.55;;;7.95;;
29358;SDS011;16347;53.232;6.556;2023-02-03T11:26:28;60.50;;;6.63;;
29358;SDS011;16347;53.232;6.556;2023-02-03T11:29:01;47.00;;;6.35;;
29358;SDS011;16347;53.232;6.556;2023-02-03T11:31:34;56.55;;;8.18;;
29358;SDS011;16347;53.232;6.556;2023-02-03T11:34:04;47.47;;;5.82;;
29358;SDS011;16347;53.232;6.556;2023-02-03T11:36:34;49.25;;;6.35;;
29358;SDS011;16347;53.232;6.556;2023-02-03T11:39:19;56.75;;;6.95;;
29358;SDS011;16347;53.232;6.556;2023-02-03T11:41:51;56.58;;;7.72;;
29358;SDS011;16347;53.232;6.556;2023-02-03T11:44:21;71.00;;;8.07;;
29358;SDS011;16347;53.232;6.556;2023-02-03T11:46:54;56.40;;;6.90;;
29358;SDS011;16347;53.232;6.556;2023-02-03T11:52:30;50.45;;;7.38;;
29358;SDS011;16347;53.232;6.556;2023-02-03T11:55:17;55.17;;;6.70;;
29358;SDS011;16347;53.232;6.556;2023-02-03T11:58:12;49.80;;;6.28;;
29358;SDS011;16347;53.232;6.556;2023-02-03T12:00:57;46.65;;;5.57;;
29358;SDS011;16347;53.232;6.556;2023-02-03T12:03:43;52.45;;;8.40;;
29358;SDS011;16347;53.232;6.556;2023-02-03T12:09:23;41.58;;;5.43;;
29358;SDS011;16347;53.232;6.556;2023-02-03T12:12:14;46.60;;;6.20;;
29358;SDS011;16347;53.232;6.556;2023-02-03T12:14:58;45.63;;;6.90;;
29358;SDS011;16347;53.232;6.556;2023-02-03T12:17:43;51.15;;;6.57;;
29358;SDS011;16347;53.232;6.556;2023-02-03T12:20:24;53.83;;;6.88;;
29358;SDS011;16347;53.232;6.556;2023-02-03T12:23:09;51.85;;;7.88;;
29358;SDS011;16347;53.232;6.556;2023-02-03T12:25:48;53.05;;;6.07;;
29358;SDS011;16347;53.232;6.556;2023-02-03T12:28:33;48.15;;;6.15;;
29358;SDS011;16347;53.232;6.556;2023-02-03T12:31:11;36.30;;;6.22;;
29358;SDS011;16347;53.232;6.556;2023-02-03T12:33:45;50.75;;;6.32;;
29358;SDS011;16347;53.232;6.556;2023-02-03T12:36:19;50.17;;;7.18;;
29358;SDS011;16347;53.232;6.556;2023-02-03T12:38:52;39.00;;;5.60;;
29358;SDS011;16347;53.232;6.556;2023-02-03T12:41:27;44.28;;;6.35;;
29358;SDS011;16347;53.232;6.556;2023-02-03T12:44:03;42.42;;;5.10;;
29358;SDS011;16347;53.232;6.556;2023-02-03T12:46:35;53.63;;;7.72;;
29358;SDS011;16347;53.232;6.556;2023-02-03T12:49:09;47.15;;;6.72;;
29358;SDS011;16347;53.232;6.556;2023-02-03T12:51:45;43.97;;;6.55;;
29358;SDS011;16347;53.232;6.556;2023-02-03T12:54:22;56.22;;;6.35;;
29358;SDS011;16347;53.232;6.556;2023-02-03T12:57:11;43.10;;;5.70;;
29358;SDS011;16347;53.232;6.556;2023-02-03T12:59:53;45.83;;;6.82;;
29358;SDS011;16347;53.232;6.556;2023-02-03T13:02:31;52.05;;;6.82;;
29358;SDS011;16347;53.232;6.556;2023-02-03T13:05:12;45.58;;;6.78;;
29358;SDS011;16347;53.232;6.556;2023-02-03T13:07:50;52.95;;;7.03;;
29358;SDS011;16347;53.232;6.556;2023-02-03T13:10:25;58.72;;;8.38;;
29358;SDS011;16347;53.232;6.556;2023-02-03T13:13:01;58.00;;;8.48;;
29358;SDS011;16347;53.232;6.556;2023-02-03T13:15:34;58.20;;;8.20;;
29358;SDS011;16347;53.232;6.556;2023-02-03T13:18:07;57.95;;;8.15;;
29358;SDS011;16347;53.232;6.556;2023-02-03T13:20:42;70.07;;;7.30;;
29358;SDS011;16347;53.232;6.556;2023-02-03T13:23:13;70.45;;;9.65;;
29358;SDS011;16347;53.232;6.556;2023-02-03T13:25:46;63.38;;;8.32;;
29358;SDS011;16347;53.232;6.556;2023-02-03T13:28:26;58.80;;;7.95;;
29358;SDS011;16347;53.232;6.556;2023-02-03T13:31:08;67.68;;;7.45;;
29358;SDS011;16347;53.232;6.556;2023-02-03T13:33:51;54.65;;;5.90;;
29358;SDS011;16347;53.232;6.556;2023-02-03T13:36:36;56.28;;;8.30;;
29358;SDS011;16347;53.232;6.556;2023-02-03T13:39:30;58.10;;;7.55;;
29358;SDS011;16347;53.232;6.556;2023-02-03T13:42:10;66.40;;;7.60;;
29358;SDS011;16347;53.232;6.556;2023-02-03T13:44:52;60.00;;;6.88;;
29358;SDS011;16347;53.232;6.556;2023-02-03T13:47:25;66.83;;;7.80;;
29358;SDS011;16347;53.232;6.556;2023-02-03T13:49:57;55.97;;;7.03;;
29358;SDS011;16347;53.232;6.556;2023-02-03T13:52:31;71.15;;;8.20;;
29358;SDS011;16347;53.232;6.556;2023-02-03T13:57:33;58.53;;;6.93;;
29358;SDS011;16347;53.232;6.556;2023-02-03T14:00:04;62.03;;;7.85;;
29358;SDS011;16347;53.232;6.556;2023-02-03T14:02:55;55.85;;;6.18;;
29358;SDS011;16347;53.232;6.556;2023-02-03T14:05:39;49.08;;;6.05;;
29358;SDS011;16347;53.232;6.556;2023-02-03T14:11:43;56.40;;;6.50;;
29358;SDS011;16347;53.232;6.556;2023-02-03T14:20:36;61.05;;;7.18;;
29358;SDS011;16347;53.232;6.556;2023-02-03T14:23:45;56.85;;;8.32;;
29358;SDS011;16347;53.232;6.556;2023-02-03T14:26:21;51.20;;;7.38;;
29358;SDS011;16347;53.232;6.556;2023-02-03T14:29:07;45.33;;;6.32;;
29358;SDS011;16347;53.232;6.556;2023-02-03T14:31:54;48.65;;;7.55;;
29358;SDS011;16347;53.232;6.556;2023-02-03T14:37:15;52.88;;;6.57;;
29358;SDS011;16347;53.232;6.556;2023-02-03T14:39:59;42.92;;;5.28;;
29358;SDS011;16347;53.232;6.556;2023-02-03T14:45:47;53.10;;;5.72;;
29358;SDS011;16347;53.232;6.556;2023-02-03T14:48:28;36.17;;;5.20;;
29358;SDS011;16347;53.232;6.556;2023-02-03T14:51:13;40.00;;;6.35;;
29358;SDS011;16347;53.232;6.556;2023-02-03T14:54:03;44.88;;;7.05;;
29358;SDS011;16347;53.232;6.556;2023-02-03T14:56:54;40.28;;;5.82;;
29358;SDS011;16347;53.232;6.556;2023-02-03T14:59:47;55.78;;;6.20;;
29358;SDS011;16347;53.232;6.556;2023-02-03T15:02:21;43.15;;;5.85;;
29358;SDS011;16347;53.232;6.556;2023-02-03T15:04:52;62.28;;;7.35;;
29358;SDS011;16347;53.232;6.556;2023-02-03T15:07:58;43.05;;;5.20;;
29358;SDS011;16347;53.232;6.556;2023-02-03T15:10:39;54.90;;;7.13;;
29358;SDS011;16347;53.232;6.556;2023-02-03T15:13:22;41.47;;;4.95;;
29358;SDS011;16347;53.232;6.556;2023-02-03T15:15:51;45.35;;;5.85;;
29358;SDS011;16347;53.232;6.556;2023-02-03T15:18:21;37.30;;;5.18;;
29358;SDS011;16347;53.232;6.556;2023-02-03T15:20:54;34.28;;;4.78;;
29358;SDS011;16347;53.232;6.556;2023-02-03T15:23:24;31.27;;;5.20;;
29358;SDS011;16347;53.232;6.556;2023-02-03T15:25:55;41.30;;;6.43;;
29358;SDS011;16347;53.232;6.556;2023-02-03T15:28:25;32.15;;;4.88;;
29358;SDS011;16347;53.232;6.556;2023-02-03T15:30:56;52.72;;;6.45;;
29358;SDS011;16347;53.232;6.556;2023-02-03T15:33:29;51.22;;;7.00;;
29358;SDS011;16347;53.232;6.556;2023-02-03T15:35:59;46.95;;;5.13;;